Change the Weather History Date:

Monday, January 21, 2013

  Actual Average (KLJF) Record (KLJF)
Temperature  
Mean Temperature -8 °F -  
Max Temperature -4 °F 26 °F 45 °F (1981)
Min Temperature -13 °F 4 °F -31 °F (1970)
Degree Days  
Heating Degree Days 74    
Moisture  
Dew Point -18 °F    
Average Humidity 67    
Maximum Humidity 77    
Minimum Humidity 59    
Precipitation  
Precipitation 0.00 in - - ()
Sea Level Pressure  
Sea Level Pressure 30.30 in    
Wind  
Wind Speed 15 mph (WNW)    
Max Wind Speed 26 mph    
Max Gust Speed 31 mph    
Visibility 10 miles    
Events      
Averages and records for this station are not official NWS values.
T = Trace of Precipitation, MM = Missing Value Source: NWS Daily Summary

Daily Weather History Graph

Daily Weather History Graph

Search for Another Location

Airport or City:

Trip Planner

Search our weather history database for the weather conditions in past years. The results will help you decide how hot, cold, wet, or windy it might be!

Date:

Astronomy

Jan. 21, 2013 Rise Set
Actual Time 7:51 AM CST 5:13 PM CST
Civil Twilight 7:18 AM CST 5:45 PM CST
Nautical Twilight 6:42 AM CST 6:21 PM CST
Astronomical Twilight 6:08 AM CST 6:56 PM CST
Moon 12:52 PM CST (1/21) 3:20 AM CST (1/21)
Length of Visible Light 10h 26m
Length of Day
9h 21m
Waxing Gibbous, 75% of the Moon is Illuminated
Jan 21
Waxing Gibbous
Jan 26
Full
Feb 3
Last Quarter
Feb 10
New
Feb 17
First Quarter

Hourly Weather History & Observations

Time (CST) Temp. Windchill Dew Point Humidity Pressure Visibility Wind Dir Wind Speed Gust Speed Precip Events Conditions
12:15 AM -7.6 °F -32.9 °F -18.4 °F 59% 30.31 in 10.0 mi NW 21.9 mph 28.8 mph N/A   Scattered Clouds
12:36 AM -9.4 °F -37.3 °F -16.6 °F 71% 30.31 in 3.0 mi NW 26.5 mph 31.1 mph N/A   Haze
1:35 AM -11.2 °F -36.4 °F -18.4 °F 70% 30.32 in 10.0 mi NW 19.6 mph 24.2 mph N/A   Clear
1:55 AM -11.2 °F -37.6 °F -20.2 °F 64% 30.32 in 10.0 mi NW 21.9 mph 26.5 mph N/A   Clear
2:15 AM -11.2 °F -35.2 °F -20.2 °F 64% 30.33 in 10.0 mi NW 17.3 mph - N/A   Clear
2:35 AM -11.2 °F -33.7 °F -20.2 °F 64% 30.34 in 10.0 mi WNW 15.0 mph - N/A   Clear
2:55 AM -11.2 °F -33.7 °F -20.2 °F 64% 30.34 in 10.0 mi WNW 15.0 mph 18.4 mph N/A   Clear
3:15 AM -11.2 °F -33.7 °F -20.2 °F 64% 30.34 in 10.0 mi WNW 15.0 mph - N/A   Clear
3:35 AM -11.2 °F -33.7 °F -20.2 °F 64% 30.33 in 10.0 mi NW 15.0 mph - N/A   Clear
3:55 AM -11.2 °F -32.9 °F -20.2 °F 64% 30.33 in 10.0 mi WNW 13.8 mph 20.7 mph N/A   Clear
4:35 AM -13.0 °F -34.3 °F -20.2 °F 70% 30.32 in 10.0 mi WNW 12.7 mph - N/A   Clear
4:55 AM -13.0 °F -33.4 °F -20.2 °F 70% 30.32 in 10.0 mi WNW 11.5 mph - N/A   Clear
5:16 AM -13.0 °F -34.3 °F -20.2 °F 70% 30.32 in 10.0 mi WNW 12.7 mph - N/A   Clear
5:35 AM -13.0 °F -36.0 °F -20.2 °F 70% 30.32 in 10.0 mi WNW 15.0 mph - N/A   Clear
5:55 AM -13.0 °F -35.2 °F -20.2 °F 70% 30.32 in 10.0 mi WNW 13.8 mph - N/A   Clear
6:16 AM -13.0 °F -32.4 °F -20.2 °F 70% 30.32 in 10.0 mi WNW 10.4 mph - N/A   Clear
6:35 AM -13.0 °F -33.4 °F -20.2 °F 70% 30.31 in 10.0 mi WNW 11.5 mph - N/A   Clear
6:55 AM -13.0 °F -32.4 °F -22.0 °F 64% 30.31 in 10.0 mi WNW 10.4 mph - N/A   Clear
7:15 AM -13.0 °F -34.3 °F -22.0 °F 64% 30.31 in 10.0 mi WNW 12.7 mph - N/A   Clear
7:35 AM -13.0 °F -32.4 °F -22.0 °F 64% 30.31 in 10.0 mi WNW 10.4 mph - N/A   Clear
7:55 AM -13.0 °F -35.2 °F -20.2 °F 70% 30.31 in 10.0 mi WNW 13.8 mph - N/A   Clear
8:15 AM -13.0 °F -32.4 °F -20.2 °F 70% 30.31 in 10.0 mi WNW 10.4 mph - N/A   Clear
8:35 AM -13.0 °F -34.3 °F -22.0 °F 64% 30.32 in 10.0 mi WNW 12.7 mph - N/A   Clear
8:55 AM -13.0 °F -34.3 °F -20.2 °F 70% 30.32 in 10.0 mi WNW 12.7 mph 16.1 mph N/A   Clear
9:15 AM -13.0 °F -33.4 °F -20.2 °F 70% 30.33 in 10.0 mi NW 11.5 mph - N/A   Clear
9:36 AM -11.2 °F -33.7 °F -20.2 °F 64% 30.34 in 10.0 mi WNW 15.0 mph - N/A   Clear
9:55 AM -11.2 °F -35.2 °F -20.2 °F 64% 30.34 in 10.0 mi NW 17.3 mph - N/A   Clear
10:15 AM -11.2 °F -35.2 °F -20.2 °F 64% 30.34 in 10.0 mi WNW 17.3 mph 20.7 mph N/A   Clear
10:36 AM -11.2 °F -34.4 °F -20.2 °F 64% 30.35 in 10.0 mi NW 16.1 mph - N/A   Clear
10:55 AM -11.2 °F -34.4 °F -20.2 °F 64% 30.35 in 10.0 mi WNW 16.1 mph - N/A   Clear
11:15 AM -9.4 °F -32.1 °F -20.2 °F 59% 30.34 in 10.0 mi WNW 16.1 mph 21.9 mph N/A   Clear
11:36 AM -9.4 °F -34.1 °F -20.2 °F 59% 30.33 in 10.0 mi NW 19.6 mph - N/A   Clear
11:55 AM -9.4 °F -31.4 °F -18.4 °F 65% 30.32 in 10.0 mi NW 15.0 mph - N/A   Clear
12:15 PM -9.4 °F -30.6 °F -18.4 °F 65% 30.32 in 7.0 mi WNW 13.8 mph 20.7 mph N/A   Clear
12:34 PM -7.6 °F -31.1 °F -18.4 °F 59% 30.31 in 10.0 mi WNW 18.4 mph - N/A   Clear
12:55 PM -7.6 °F -29.8 °F -16.6 °F 65% 30.30 in 7.0 mi West 16.1 mph - N/A   Clear
1:15 PM -7.6 °F -29.8 °F -16.6 °F 65% 30.30 in 7.0 mi WNW 16.1 mph 20.7 mph N/A   Clear
1:35 PM -7.6 °F -29.8 °F -16.6 °F 65% 30.29 in 5.0 mi WNW 16.1 mph - N/A   Haze
1:55 PM -5.8 °F -27.5 °F -16.6 °F 60% 30.28 in 10.0 mi WNW 16.1 mph 21.9 mph N/A   Clear
2:15 PM -5.8 °F -28.2 °F -16.6 °F 60% 30.28 in 7.0 mi WNW 17.3 mph 24.2 mph N/A   Clear
2:35 PM -5.8 °F -28.2 °F -16.6 °F 60% 30.28 in 7.0 mi WNW 17.3 mph - N/A   Clear
2:55 PM -5.8 °F -27.5 °F -14.8 °F 65% 30.28 in 7.0 mi WNW 16.1 mph - N/A   Scattered Clouds
3:15 PM -5.8 °F -26.8 °F -14.8 °F 65% 30.28 in 10.0 mi WNW 15.0 mph - N/A   Clear
3:35 PM -5.8 °F -27.5 °F -14.8 °F 65% 30.28 in 5.0 mi NW 16.1 mph - N/A   Haze
3:55 PM -4.0 °F -23.7 °F -14.8 °F 60% 30.27 in 10.0 mi WNW 13.8 mph 18.4 mph N/A   Clear
4:15 PM -4.0 °F -23.7 °F -14.8 °F 60% 30.27 in 10.0 mi WNW 13.8 mph - N/A   Clear
4:35 PM -4.0 °F -22.1 °F -14.8 °F 60% 30.27 in 10.0 mi WNW 11.5 mph - N/A   Clear
5:16 PM -5.8 °F -19.9 °F -13.0 °F 71% 30.27 in 10.0 mi WNW 6.9 mph - N/A   Clear
5:35 PM -5.8 °F -18.4 °F -14.8 °F 65% 30.27 in 10.0 mi West 5.8 mph - N/A   Clear
5:55 PM -5.8 °F -16.7 °F -14.8 °F 65% 30.27 in 10.0 mi West 4.6 mph - N/A   Clear
6:16 PM -7.6 °F -18.8 °F -14.8 °F 71% 30.27 in 10.0 mi West 4.6 mph - N/A   Clear
6:55 PM -7.6 °F - -14.8 °F 71% 30.27 in 10.0 mi Calm Calm - N/A   Clear
7:16 PM -7.6 °F - -14.8 °F 71% 30.27 in 10.0 mi Calm Calm - N/A   Clear
7:35 PM -9.4 °F - -14.8 °F 77% 30.27 in 10.0 mi Calm Calm - N/A   Clear
7:55 PM -7.6 °F - -14.8 °F 71% 30.27 in 10.0 mi Calm Calm - N/A   Clear
8:16 PM -9.4 °F -18.6 °F -14.8 °F 77% 30.27 in 10.0 mi WSW 3.5 mph - N/A   Clear
8:35 PM -9.4 °F -20.9 °F -16.6 °F 71% 30.27 in 10.0 mi WSW 4.6 mph - N/A   Clear
8:55 PM -9.4 °F -18.6 °F -14.8 °F 77% 30.27 in 10.0 mi West 3.5 mph - N/A   Clear
9:16 PM -9.4 °F -20.9 °F -16.6 °F 71% 30.27 in 10.0 mi West 4.6 mph - N/A   Clear
9:35 PM -7.6 °F -24.6 °F -14.8 °F 71% 30.28 in 10.0 mi WNW 9.2 mph - N/A   Clear
9:55 PM -7.6 °F -23.4 °F -14.8 °F 71% 30.28 in 10.0 mi WNW 8.1 mph - N/A   Clear
10:15 PM -7.6 °F -23.4 °F -14.8 °F 71% 30.28 in 10.0 mi WNW 8.1 mph - N/A   Clear
10:35 PM -7.6 °F -20.6 °F -16.6 °F 65% 30.28 in 10.0 mi West 5.8 mph - N/A   Clear
10:55 PM -9.4 °F -24.3 °F -16.6 °F 71% 30.28 in 10.0 mi West 6.9 mph - N/A   Clear
11:15 PM -9.4 °F -22.7 °F -16.6 °F 71% 30.29 in 10.0 mi WNW 5.8 mph - N/A   Clear
11:36 PM -9.4 °F -24.3 °F -16.6 °F 71% 30.29 in 10.0 mi WNW 6.9 mph - N/A   Clear
11:55 PM -9.4 °F -24.3 °F -16.6 °F 71% 30.30 in 10.0 mi WNW 6.9 mph - N/A   Clear